createdAt,value
2023-04-02T00:28:13.320Z,4.84
2023-04-02T00:58:13.282Z,4.92
2023-04-02T01:28:13.043Z,4.93
2023-04-02T01:58:13.272Z,5.0
2023-04-02T02:28:12.908Z,5.02
2023-04-02T03:28:14.096Z,5.08
2023-04-02T03:58:13.088Z,5.13
2023-04-02T04:28:12.703Z,5.08
2023-04-02T04:58:13.486Z,4.95
2023-04-02T05:28:12.771Z,4.97
2023-04-02T05:58:34.335Z,5.18
2023-04-02T06:28:13.508Z,5.48
2023-04-02T06:58:12.655Z,5.81
2023-04-02T07:28:12.741Z,6.44
2023-04-02T07:58:12.778Z,6.89
2023-04-02T08:28:12.452Z,7.61
2023-04-02T08:58:12.949Z,9.91
2023-04-02T09:28:17.178Z,9.81
2023-04-02T09:58:12.742Z,9.57
2023-04-02T10:28:12.960Z,9.39
2023-04-02T10:58:12.854Z,9.42
2023-04-02T11:28:12.442Z,8.87
2023-04-02T12:28:12.499Z,8.98
2023-04-02T12:58:12.404Z,9.41
2023-04-02T13:28:12.612Z,8.9
2023-04-02T13:58:12.250Z,8.77
2023-04-02T14:28:11.858Z,8.36
2023-04-02T14:58:12.075Z,8.3
2023-04-02T15:28:12.183Z,8.35
2023-04-02T15:58:12.053Z,8.14
2023-04-02T16:28:12.580Z,8.19
2023-04-02T16:58:12.166Z,8.18
2023-04-02T17:28:12.043Z,7.89
2023-04-02T17:58:12.273Z,7.76
2023-04-02T18:28:12.162Z,7.32
2023-04-02T18:58:11.739Z,7.34
2023-04-02T19:28:12.246Z,7.31
2023-04-02T19:58:19.067Z,7.08
2023-04-02T20:28:12.047Z,6.84
2023-04-02T20:58:11.789Z,6.57
2023-04-02T21:28:11.675Z,6.63
2023-04-02T21:58:11.424Z,6.44
2023-04-02T22:28:12.193Z,6.1
2023-04-02T22:58:11.449Z,6.14
2023-04-02T23:28:11.401Z,6.04
